sensor_id;sensor_type;location;lat;lon;timestamp;P1;durP1;ratioP1;P2;durP2;ratioP2
9056;SDS011;4563;54.756;9.400;2023-02-18T00:00:54;22.87;;;3.23;;
9056;SDS011;4563;54.756;9.400;2023-02-18T00:03:21;18.70;;;2.57;;
9056;SDS011;4563;54.756;9.400;2023-02-18T00:05:50;11.73;;;2.67;;
9056;SDS011;4563;54.756;9.400;2023-02-18T00:08:17;20.47;;;4.00;;
9056;SDS011;4563;54.756;9.400;2023-02-18T00:10:44;25.83;;;4.87;;
9056;SDS011;4563;54.756;9.400;2023-02-18T00:13:11;20.53;;;2.90;;
9056;SDS011;4563;54.756;9.400;2023-02-18T00:15:39;16.43;;;2.90;;
9056;SDS011;4563;54.756;9.400;2023-02-18T00:18:06;25.73;;;3.50;;
9056;SDS011;4563;54.756;9.400;2023-02-18T00:20:33;23.20;;;4.07;;
9056;SDS011;4563;54.756;9.400;2023-02-18T00:23:02;23.53;;;3.87;;
9056;SDS011;4563;54.756;9.400;2023-02-18T00:25:29;17.33;;;3.23;;
9056;SDS011;4563;54.756;9.400;2023-02-18T00:27:55;20.67;;;3.27;;
9056;SDS011;4563;54.756;9.400;2023-02-18T00:30:22;19.20;;;3.30;;
9056;SDS011;4563;54.756;9.400;2023-02-18T00:32:49;25.20;;;3.57;;
9056;SDS011;4563;54.756;9.400;2023-02-18T00:35:16;15.63;;;2.77;;
9056;SDS011;4563;54.756;9.400;2023-02-18T00:37:43;21.07;;;3.17;;
9056;SDS011;4563;54.756;9.400;2023-02-18T00:40:11;21.53;;;3.37;;
9056;SDS011;4563;54.756;9.400;2023-02-18T00:42:38;17.70;;;3.00;;
9056;SDS011;4563;54.756;9.400;2023-02-18T00:45:05;27.37;;;3.10;;
9056;SDS011;4563;54.756;9.400;2023-02-18T00:47:33;24.13;;;3.40;;
9056;SDS011;4563;54.756;9.400;2023-02-18T00:49:59;25.10;;;3.37;;
9056;SDS011;4563;54.756;9.400;2023-02-18T00:52:26;23.53;;;3.30;;
9056;SDS011;4563;54.756;9.400;2023-02-18T00:54:53;18.70;;;3.30;;
9056;SDS011;4563;54.756;9.400;2023-02-18T00:57:21;18.57;;;3.17;;
9056;SDS011;4563;54.756;9.400;2023-02-18T00:59:48;26.13;;;2.90;;
9056;SDS011;4563;54.756;9.400;2023-02-18T01:02:15;21.90;;;2.67;;
9056;SDS011;4563;54.756;9.400;2023-02-18T01:04:42;11.50;;;2.50;;
9056;SDS011;4563;54.756;9.400;2023-02-18T01:07:09;28.43;;;3.37;;
9056;SDS011;4563;54.756;9.400;2023-02-18T01:09:36;14.63;;;2.13;;
9056;SDS011;4563;54.756;9.400;2023-02-18T01:12:03;19.10;;;2.53;;
9056;SDS011;4563;54.756;9.400;2023-02-18T01:14:31;22.07;;;2.30;;
9056;SDS011;4563;54.756;9.400;2023-02-18T01:16:58;13.37;;;2.43;;
9056;SDS011;4563;54.756;9.400;2023-02-18T01:19:25;19.57;;;2.33;;
9056;SDS011;4563;54.756;9.400;2023-02-18T01:21:52;19.50;;;3.00;;
9056;SDS011;4563;54.756;9.400;2023-02-18T01:24:18;15.13;;;2.77;;
9056;SDS011;4563;54.756;9.400;2023-02-18T01:26:45;16.13;;;3.47;;
9056;SDS011;4563;54.756;9.400;2023-02-18T01:29:12;14.43;;;2.63;;
9056;SDS011;4563;54.756;9.400;2023-02-18T01:31:40;21.83;;;2.53;;
9056;SDS011;4563;54.756;9.400;2023-02-18T01:34:07;18.60;;;2.30;;
9056;SDS011;4563;54.756;9.400;2023-02-18T01:36:34;23.33;;;2.60;;
9056;SDS011;4563;54.756;9.400;2023-02-18T01:39:01;20.50;;;2.67;;
9056;SDS011;4563;54.756;9.400;2023-02-18T01:41:27;25.27;;;2.43;;
9056;SDS011;4563;54.756;9.400;2023-02-18T01:44:10;20.33;;;2.80;;
9056;SDS011;4563;54.756;9.400;2023-02-18T01:46:38;13.73;;;2.20;;
9056;SDS011;4563;54.756;9.400;2023-02-18T01:49:06;13.43;;;1.97;;
9056;SDS011;4563;54.756;9.400;2023-02-18T01:51:36;13.50;;;2.23;;
9056;SDS011;4563;54.756;9.400;2023-02-18T01:54:07;18.03;;;2.70;;
9056;SDS011;4563;54.756;9.400;2023-02-18T01:56:37;19.47;;;2.87;;
9056;SDS011;4563;54.756;9.400;2023-02-18T01:59:09;20.93;;;2.60;;
9056;SDS011;4563;54.756;9.400;2023-02-18T02:01:39;22.33;;;3.20;;
9056;SDS011;4563;54.756;9.400;2023-02-18T02:04:10;20.87;;;6.30;;
9056;SDS011;4563;54.756;9.400;2023-02-18T02:06:37;19.57;;;2.30;;
9056;SDS011;4563;54.756;9.400;2023-02-18T02:09:05;16.53;;;2.57;;
9056;SDS011;4563;54.756;9.400;2023-02-18T02:11:45;15.67;;;2.33;;
9056;SDS011;4563;54.756;9.400;2023-02-18T02:14:33;17.00;;;2.17;;
9056;SDS011;4563;54.756;9.400;2023-02-18T02:17:10;13.70;;;2.03;;
9056;SDS011;4563;54.756;9.400;2023-02-18T02:20:01;18.30;;;2.27;;
9056;SDS011;4563;54.756;9.400;2023-02-18T02:25:50;11.87;;;2.23;;
9056;SDS011;4563;54.756;9.400;2023-02-18T02:28:40;11.27;;;1.77;;
9056;SDS011;4563;54.756;9.400;2023-02-18T02:31:36;17.50;;;2.60;;
9056;SDS011;4563;54.756;9.400;2023-02-18T02:37:22;13.40;;;2.03;;
9056;SDS011;4563;54.756;9.400;2023-02-18T02:39:56;18.73;;;2.73;;
9056;SDS011;4563;54.756;9.400;2023-02-18T02:42:33;15.70;;;2.20;;
9056;SDS011;4563;54.756;9.400;2023-02-18T02:45:13;19.27;;;2.43;;
9056;SDS011;4563;54.756;9.400;2023-02-18T02:47:48;9.70;;;1.43;;
9056;SDS011;4563;54.756;9.400;2023-02-18T02:50:21;21.90;;;2.37;;
9056;SDS011;4563;54.756;9.400;2023-02-18T02:52:57;9.93;;;1.87;;
9056;SDS011;4563;54.756;9.400;2023-02-18T02:55:27;24.43;;;2.47;;
9056;SDS011;4563;54.756;9.400;2023-02-18T02:57:54;11.47;;;2.17;;
9056;SDS011;4563;54.756;9.400;2023-02-18T03:00:22;10.20;;;1.70;;
9056;SDS011;4563;54.756;9.400;2023-02-18T03:06:02;13.20;;;1.97;;
9056;SDS011;4563;54.756;9.400;2023-02-18T03:08:48;18.77;;;2.07;;
9056;SDS011;4563;54.756;9.400;2023-02-18T03:11:26;14.80;;;2.20;;
9056;SDS011;4563;54.756;9.400;2023-02-18T03:14:00;14.30;;;2.10;;
9056;SDS011;4563;54.756;9.400;2023-02-18T03:16:35;11.47;;;1.70;;
9056;SDS011;4563;54.756;9.400;2023-02-18T03:19:12;11.87;;;2.47;;
9056;SDS011;4563;54.756;9.400;2023-02-18T03:21:50;11.60;;;1.67;;
9056;SDS011;4563;54.756;9.400;2023-02-18T03:24:22;17.50;;;1.53;;
9056;SDS011;4563;54.756;9.400;2023-02-18T03:26:53;14.00;;;1.70;;
9056;SDS011;4563;54.756;9.400;2023-02-18T03:29:21;22.77;;;2.77;;
9056;SDS011;4563;54.756;9.400;2023-02-18T03:31:51;14.27;;;2.27;;
9056;SDS011;4563;54.756;9.400;2023-02-18T03:34:22;16.97;;;2.37;;
9056;SDS011;4563;54.756;9.400;2023-02-18T03:36:54;26.73;;;3.10;;
9056;SDS011;4563;54.756;9.400;2023-02-18T03:39:23;17.67;;;2.03;;
9056;SDS011;4563;54.756;9.400;2023-02-18T03:41:52;17.80;;;2.50;;
9056;SDS011;4563;54.756;9.400;2023-02-18T03:44:19;20.10;;;2.37;;
9056;SDS011;4563;54.756;9.400;2023-02-18T03:46:46;29.20;;;2.50;;
9056;SDS011;4563;54.756;9.400;2023-02-18T03:49:13;21.53;;;2.80;;
9056;SDS011;4563;54.756;9.400;2023-02-18T03:51:40;27.53;;;2.53;;
9056;SDS011;4563;54.756;9.400;2023-02-18T03:54:09;19.80;;;2.40;;
9056;SDS011;4563;54.756;9.400;2023-02-18T03:56:38;21.50;;;2.40;;
9056;SDS011;4563;54.756;9.400;2023-02-18T03:59:05;20.23;;;2.23;;
9056;SDS011;4563;54.756;9.400;2023-02-18T04:01:32;18.80;;;2.40;;
9056;SDS011;4563;54.756;9.400;2023-02-18T04:03:59;23.43;;;2.90;;
9056;SDS011;4563;54.756;9.400;2023-02-18T04:06:27;13.33;;;2.13;;
9056;SDS011;4563;54.756;9.400;2023-02-18T04:08:54;18.00;;;2.17;;
9056;SDS011;4563;54.756;9.400;2023-02-18T04:11:22;14.20;;;1.63;;
9056;SDS011;4563;54.756;9.400;2023-02-18T04:13:49;14.00;;;2.63;;
9056;SDS011;4563;54.756;9.400;2023-02-18T04:16:15;27.03;;;3.07;;
9056;SDS011;4563;54.756;9.400;2023-02-18T04:18:42;15.13;;;2.63;;
9056;SDS011;4563;54.756;9.400;2023-02-18T04:21:09;10.63;;;1.53;;
9056;SDS011;4563;54.756;9.400;2023-02-18T04:23:36;22.43;;;2.83;;
9056;SDS011;4563;54.756;9.400;2023-02-18T04:26:03;21.67;;;3.10;;
9056;SDS011;4563;54.756;9.400;2023-02-18T04:28:31;20.07;;;3.23;;
9056;SDS011;4563;54.756;9.400;2023-02-18T04:30:58;24.37;;;2.80;;
9056;SDS011;4563;54.756;9.400;2023-02-18T04:33:25;20.30;;;3.27;;
9056;SDS011;4563;54.756;9.400;2023-02-18T04:35:51;22.23;;;2.47;;
9056;SDS011;4563;54.756;9.400;2023-02-18T04:38:18;16.07;;;2.43;;
9056;SDS011;4563;54.756;9.400;2023-02-18T04:40:45;21.07;;;2.80;;
9056;SDS011;4563;54.756;9.400;2023-02-18T04:43:12;21.33;;;3.50;;
9056;SDS011;4563;54.756;9.400;2023-02-18T04:45:40;20.07;;;2.53;;
9056;SDS011;4563;54.756;9.400;2023-02-18T04:48:07;20.07;;;2.47;;
9056;SDS011;4563;54.756;9.400;2023-02-18T04:50:34;18.73;;;2.60;;
9056;SDS011;4563;54.756;9.400;2023-02-18T04:53:01;23.53;;;2.97;;
9056;SDS011;4563;54.756;9.400;2023-02-18T04:55:27;19.60;;;3.17;;
9056;SDS011;4563;54.756;9.400;2023-02-18T04:57:54;20.43;;;2.80;;
9056;SDS011;4563;54.756;9.400;2023-02-18T05:00:21;21.20;;;2.33;;
9056;SDS011;4563;54.756;9.400;2023-02-18T05:02:50;18.33;;;2.10;;
9056;SDS011;4563;54.756;9.400;2023-02-18T05:05:16;25.50;;;2.57;;
9056;SDS011;4563;54.756;9.400;2023-02-18T05:07:43;19.67;;;2.07;;
9056;SDS011;4563;54.756;9.400;2023-02-18T05:10:10;17.73;;;2.77;;
9056;SDS011;4563;54.756;9.400;2023-02-18T05:12:41;21.73;;;2.10;;
9056;SDS011;4563;54.756;9.400;2023-02-18T05:15:08;21.10;;;2.20;;
9056;SDS011;4563;54.756;9.400;2023-02-18T05:17:35;13.70;;;2.23;;
9056;SDS011;4563;54.756;9.400;2023-02-18T05:20:04;21.63;;;2.40;;
9056;SDS011;4563;54.756;9.400;2023-02-18T05:22:32;15.80;;;2.53;;
9056;SDS011;4563;54.756;9.400;2023-02-18T05:24:59;20.27;;;2.77;;
9056;SDS011;4563;54.756;9.400;2023-02-18T05:27:25;24.87;;;2.77;;
9056;SDS011;4563;54.756;9.400;2023-02-18T05:29:52;12.83;;;2.27;;
9056;SDS011;4563;54.756;9.400;2023-02-18T05:32:19;20.63;;;3.17;;
9056;SDS011;4563;54.756;9.400;2023-02-18T05:34:46;22.17;;;1.97;;
9056;SDS011;4563;54.756;9.400;2023-02-18T05:37:14;16.67;;;3.13;;
9056;SDS011;4563;54.756;9.400;2023-02-18T05:39:42;18.67;;;2.60;;
9056;SDS011;4563;54.756;9.400;2023-02-18T05:42:09;13.50;;;1.93;;
9056;SDS011;4563;54.756;9.400;2023-02-18T05:44:36;24.00;;;2.33;;
9056;SDS011;4563;54.756;9.400;2023-02-18T05:47:03;24.03;;;2.57;;
9056;SDS011;4563;54.756;9.400;2023-02-18T05:49:33;27.90;;;2.53;;
9056;SDS011;4563;54.756;9.400;2023-02-18T05:52:00;16.00;;;1.97;;
9056;SDS011;4563;54.756;9.400;2023-02-18T05:54:29;17.90;;;2.47;;
9056;SDS011;4563;54.756;9.400;2023-02-18T05:56:56;16.47;;;3.57;;
9056;SDS011;4563;54.756;9.400;2023-02-18T05:59:23;20.83;;;2.80;;
9056;SDS011;4563;54.756;9.400;2023-02-18T06:01:50;19.37;;;2.53;;
9056;SDS011;4563;54.756;9.400;2023-02-18T06:04:17;18.33;;;3.00;;
9056;SDS011;4563;54.756;9.400;2023-02-18T06:06:44;19.07;;;2.10;;
9056;SDS011;4563;54.756;9.400;2023-02-18T06:09:10;19.27;;;2.47;;
9056;SDS011;4563;54.756;9.400;2023-02-18T06:11:39;21.73;;;2.37;;
9056;SDS011;4563;54.756;9.400;2023-02-18T06:14:06;17.77;;;2.47;;
9056;SDS011;4563;54.756;9.400;2023-02-18T06:16:33;26.43;;;2.90;;
9056;SDS011;4563;54.756;9.400;2023-02-18T06:18:59;18.73;;;2.43;;
9056;SDS011;4563;54.756;9.400;2023-02-18T06:21:26;24.50;;;2.63;;
9056;SDS011;4563;54.756;9.400;2023-02-18T06:23:53;27.77;;;8.43;;
9056;SDS011;4563;54.756;9.400;2023-02-18T06:26:20;25.87;;;4.07;;
9056;SDS011;4563;54.756;9.400;2023-02-18T06:28:48;20.73;;;2.37;;
9056;SDS011;4563;54.756;9.400;2023-02-18T06:31:15;13.93;;;2.57;;
9056;SDS011;4563;54.756;9.400;2023-02-18T06:33:42;18.73;;;2.27;;
9056;SDS011;4563;54.756;9.400;2023-02-18T06:36:10;25.17;;;3.27;;
9056;SDS011;4563;54.756;9.400;2023-02-18T06:38:38;19.30;;;3.10;;
9056;SDS011;4563;54.756;9.400;2023-02-18T06:41:06;22.00;;;2.13;;
9056;SDS011;4563;54.756;9.400;2023-02-18T06:43:33;12.63;;;2.13;;
9056;SDS011;4563;54.756;9.400;2023-02-18T06:46:01;9.40;;;2.00;;
9056;SDS011;4563;54.756;9.400;2023-02-18T06:48:28;14.00;;;2.10;;
9056;SDS011;4563;54.756;9.400;2023-02-18T06:50:56;18.20;;;2.57;;
9056;SDS011;4563;54.756;9.400;2023-02-18T06:53:23;17.73;;;2.07;;
9056;SDS011;4563;54.756;9.400;2023-02-18T06:55:50;10.90;;;1.77;;
9056;SDS011;4563;54.756;9.400;2023-02-18T06:58:17;10.63;;;1.90;;
9056;SDS011;4563;54.756;9.400;2023-02-18T07:00:43;14.27;;;3.13;;
9056;SDS011;4563;54.756;9.400;2023-02-18T07:03:12;11.37;;;2.00;;
9056;SDS011;4563;54.756;9.400;2023-02-18T07:05:40;9.17;;;1.53;;
9056;SDS011;4563;54.756;9.400;2023-02-18T07:08:07;9.87;;;1.43;;
9056;SDS011;4563;54.756;9.400;2023-02-18T07:10:34;9.97;;;0.87;;
9056;SDS011;4563;54.756;9.400;2023-02-18T07:13:00;15.03;;;0.90;;
9056;SDS011;4563;54.756;9.400;2023-02-18T07:15:27;7.97;;;0.90;;
9056;SDS011;4563;54.756;9.400;2023-02-18T07:17:54;8.70;;;1.20;;
9056;SDS011;4563;54.756;9.400;2023-02-18T07:20:23;4.27;;;0.80;;
9056;SDS011;4563;54.756;9.400;2023-02-18T07:22:50;7.80;;;1.37;;
9056;SDS011;4563;54.756;9.400;2023-02-18T07:25:17;4.17;;;1.00;;
9056;SDS011;4563;54.756;9.400;2023-02-18T07:27:44;3.73;;;0.47;;
9056;SDS011;4563;54.756;9.400;2023-02-18T07:30:11;2.60;;;0.60;;
9056;SDS011;4563;54.756;9.400;2023-02-18T07:32:39;5.27;;;0.60;;
9056;SDS011;4563;54.756;9.400;2023-02-18T07:35:06;6.13;;;0.70;;
9056;SDS011;4563;54.756;9.400;2023-02-18T07:37:34;3.00;;;0.70;;
9056;SDS011;4563;54.756;9.400;2023-02-18T07:40:01;7.53;;;0.83;;
9056;SDS011;4563;54.756;9.400;2023-02-18T07:42:28;4.33;;;0.50;;
9056;SDS011;4563;54.756;9.400;2023-02-18T07:44:55;3.63;;;0.90;;
9056;SDS011;4563;54.756;9.400;2023-02-18T07:47:22;5.03;;;0.70;;
9056;SDS011;4563;54.756;9.400;2023-02-18T07:49:49;6.30;;;0.70;;
9056;SDS011;4563;54.756;9.400;2023-02-18T07:52:15;5.83;;;0.50;;
9056;SDS011;4563;54.756;9.400;2023-02-18T07:54:43;4.67;;;0.43;;
9056;SDS011;4563;54.756;9.400;2023-02-18T07:57:10;3.30;;;0.60;;
9056;SDS011;4563;54.756;9.400;2023-02-18T07:59:37;4.20;;;0.83;;
9056;SDS011;4563;54.756;9.400;2023-02-18T08:02:04;5.23;;;0.80;;
9056;SDS011;4563;54.756;9.400;2023-02-18T08:04:34;2.70;;;0.83;;
9056;SDS011;4563;54.756;9.400;2023-02-18T08:07:01;3.93;;;0.63;;
9056;SDS011;4563;54.756;9.400;2023-02-18T08:09:28;6.73;;;0.90;;
9056;SDS011;4563;54.756;9.400;2023-02-18T08:11:56;7.03;;;2.63;;
9056;SDS011;4563;54.756;9.400;2023-02-18T08:14:23;1.13;;;0.60;;
9056;SDS011;4563;54.756;9.400;2023-02-18T08:16:49;4.00;;;0.63;;
9056;SDS011;4563;54.756;9.400;2023-02-18T08:19:17;3.70;;;0.60;;
9056;SDS011;4563;54.756;9.400;2023-02-18T08:21:44;6.53;;;0.47;;
9056;SDS011;4563;54.756;9.400;2023-02-18T08:24:10;5.90;;;0.53;;
9056;SDS011;4563;54.756;9.400;2023-02-18T08:26:37;1.03;;;0.40;;
9056;SDS011;4563;54.756;9.400;2023-02-18T08:29:05;1.63;;;0.40;;
9056;SDS011;4563;54.756;9.400;2023-02-18T08:31:32;4.37;;;0.60;;
9056;SDS011;4563;54.756;9.400;2023-02-18T08:33:59;3.70;;;0.60;;
9056;SDS011;4563;54.756;9.400;2023-02-18T08:36:27;1.50;;;0.30;;
9056;SDS011;4563;54.756;9.400;2023-02-18T08:38:55;1.70;;;0.40;;
9056;SDS011;4563;54.756;9.400;2023-02-18T08:41:22;1.20;;;0.30;;
9056;SDS011;4563;54.756;9.400;2023-02-18T08:43:49;1.63;;;0.33;;
9056;SDS011;4563;54.756;9.400;2023-02-18T08:46:17;6.40;;;3.77;;
9056;SDS011;4563;54.756;9.400;2023-02-18T08:48:43;4.03;;;0.40;;
9056;SDS011;4563;54.756;9.400;2023-02-18T08:51:14;3.63;;;0.40;;
9056;SDS011;4563;54.756;9.400;2023-02-18T08:53:42;0.50;;;0.40;;
9056;SDS011;4563;54.756;9.400;2023-02-18T08:56:10;0.60;;;0.30;;
9056;SDS011;4563;54.756;9.400;2023-02-18T08:58:38;0.17;;;0.13;;
9056;SDS011;4563;54.756;9.400;2023-02-18T09:01:06;2.10;;;0.40;;
9056;SDS011;4563;54.756;9.400;2023-02-18T09:03:36;3.53;;;0.50;;
9056;SDS011;4563;54.756;9.400;2023-02-18T09:06:03;1.30;;;0.40;;
9056;SDS011;4563;54.756;9.400;2023-02-18T09:08:30;1.43;;;0.30;;
9056;SDS011;4563;54.756;9.400;2023-02-18T09:10:58;1.73;;;0.30;;
9056;SDS011;4563;54.756;9.400;2023-02-18T09:13:26;2.07;;;0.30;;
9056;SDS011;4563;54.756;9.400;2023-02-18T09:15:56;1.20;;;0.20;;
9056;SDS011;4563;54.756;9.400;2023-02-18T09:18:24;4.93;;;2.80;;
9056;SDS011;4563;54.756;9.400;2023-02-18T09:20:54;2.80;;;1.00;;
9056;SDS011;4563;54.756;9.400;2023-02-18T09:23:21;0.87;;;0.40;;
9056;SDS011;4563;54.756;9.400;2023-02-18T09:25:48;3.03;;;0.50;;
9056;SDS011;4563;54.756;9.400;2023-02-18T09:28:15;2.53;;;0.40;;
9056;SDS011;4563;54.756;9.400;2023-02-18T09:30:42;4.97;;;1.33;;
9056;SDS011;4563;54.756;9.400;2023-02-18T09:33:08;4.60;;;1.27;;
9056;SDS011;4563;54.756;9.400;2023-02-18T09:35:37;0.83;;;0.27;;
9056;SDS011;4563;54.756;9.400;2023-02-18T09:38:06;0.90;;;0.23;;
9056;SDS011;4563;54.756;9.400;2023-02-18T09:40:33;2.03;;;0.40;;
9056;SDS011;4563;54.756;9.400;2023-02-18T09:43:02;2.90;;;0.67;;
9056;SDS011;4563;54.756;9.400;2023-02-18T09:45:29;0.37;;;0.30;;
9056;SDS011;4563;54.756;9.400;2023-02-18T09:47:56;4.63;;;0.40;;
9056;SDS011;4563;54.756;9.400;2023-02-18T09:50:25;1.23;;;0.57;;
9056;SDS011;4563;54.756;9.400;2023-02-18T09:52:54;2.17;;;0.30;;
9056;SDS011;4563;54.756;9.400;2023-02-18T09:55:26;0.30;;;0.30;;
9056;SDS011;4563;54.756;9.400;2023-02-18T09:57:56;1.67;;;0.17;;
9056;SDS011;4563;54.756;9.400;2023-02-18T10:00:27;1.90;;;0.30;;
9056;SDS011;4563;54.756;9.400;2023-02-18T10:02:58;12.97;;;9.43;;
9056;SDS011;4563;54.756;9.400;2023-02-18T10:05:29;2.77;;;0.60;;
9056;SDS011;4563;54.756;9.400;2023-02-18T10:07:59;0.67;;;0.30;;
9056;SDS011;4563;54.756;9.400;2023-02-18T10:10:33;1.47;;;0.20;;
9056;SDS011;4563;54.756;9.400;2023-02-18T10:13:03;2.27;;;0.13;;
9056;SDS011;4563;54.756;9.400;2023-02-18T10:15:34;0.57;;;0.20;;
9056;SDS011;4563;54.756;9.400;2023-02-18T10:18:03;1.53;;;0.20;;
9056;SDS011;4563;54.756;9.400;2023-02-18T10:20:37;2.20;;;0.20;;
9056;SDS011;4563;54.756;9.400;2023-02-18T10:23:04;1.90;;;0.27;;
9056;SDS011;4563;54.756;9.400;2023-02-18T10:25:33;2.03;;;0.20;;
9056;SDS011;4563;54.756;9.400;2023-02-18T10:28:07;2.70;;;0.40;;
9056;SDS011;4563;54.756;9.400;2023-02-18T10:30:36;1.03;;;0.40;;
9056;SDS011;4563;54.756;9.400;2023-02-18T10:33:12;1.30;;;0.20;;
9056;SDS011;4563;54.756;9.400;2023-02-18T10:35:52;3.47;;;1.40;;
9056;SDS011;4563;54.756;9.400;2023-02-18T10:38:29;1.43;;;0.40;;
9056;SDS011;4563;54.756;9.400;2023-02-18T10:41:05;0.43;;;0.23;;
9056;SDS011;4563;54.756;9.400;2023-02-18T10:43:37;2.40;;;0.47;;
9056;SDS011;4563;54.756;9.400;2023-02-18T10:46:18;3.20;;;0.20;;
9056;SDS011;4563;54.756;9.400;2023-02-18T10:48:54;1.57;;;0.40;;
9056;SDS011;4563;54.756;9.400;2023-02-18T10:51:30;2.93;;;0.30;;
9056;SDS011;4563;54.756;9.400;2023-02-18T10:53:59;3.17;;;0.20;;
9056;SDS011;4563;54.756;9.400;2023-02-18T10:56:36;1.17;;;0.20;;
9056;SDS011;4563;54.756;9.400;2023-02-18T10:59:09;3.70;;;0.40;;
9056;SDS011;4563;54.756;9.400;2023-02-18T11:01:38;4.40;;;0.50;;
9056;SDS011;4563;54.756;9.400;2023-02-18T11:04:11;2.33;;;0.50;;
9056;SDS011;4563;54.756;9.400;2023-02-18T11:06:40;0.70;;;0.30;;
9056;SDS011;4563;54.756;9.400;2023-02-18T11:09:19;2.63;;;0.23;;
9056;SDS011;4563;54.756;9.400;2023-02-18T11:11:58;1.20;;;0.20;;
9056;SDS011;4563;54.756;9.400;2023-02-18T11:14:40;1.27;;;0.30;;
9056;SDS011;4563;54.756;9.400;2023-02-18T11:17:13;0.50;;;0.20;;
9056;SDS011;4563;54.756;9.400;2023-02-18T11:19:45;2.20;;;0.37;;
9056;SDS011;4563;54.756;9.400;2023-02-18T11:22:18;1.37;;;0.47;;
9056;SDS011;4563;54.756;9.400;2023-02-18T11:24:47;1.00;;;0.37;;
9056;SDS011;4563;54.756;9.400;2023-02-18T11:27:19;2.67;;;0.33;;
9056;SDS011;4563;54.756;9.400;2023-02-18T11:29:50;1.60;;;0.50;;
9056;SDS011;4563;54.756;9.400;2023-02-18T11:32:19;0.70;;;0.20;;
9056;SDS011;4563;54.756;9.400;2023-02-18T11:34:46;2.00;;;0.20;;
9056;SDS011;4563;54.756;9.400;2023-02-18T11:37:16;0.37;;;0.20;;
9056;SDS011;4563;54.756;9.400;2023-02-18T11:39:45;0.67;;;0.30;;
9056;SDS011;4563;54.756;9.400;2023-02-18T11:42:15;1.53;;;0.30;;
9056;SDS011;4563;54.756;9.400;2023-02-18T11:44:49;0.63;;;0.27;;
9056;SDS011;4563;54.756;9.400;2023-02-18T11:47:19;1.27;;;0.30;;
9056;SDS011;4563;54.756;9.400;2023-02-18T11:49:58;2.23;;;0.20;;
9056;SDS011;4563;54.756;9.400;2023-02-18T11:52:29;1.93;;;0.30;;
9056;SDS011;4563;54.756;9.400;2023-02-18T11:55:00;0.53;;;0.20;;
9056;SDS011;4563;54.756;9.400;2023-02-18T11:57:29;0.37;;;0.17;;
9056;SDS011;4563;54.756;9.400;2023-02-18T11:59:57;0.40;;;0.20;;
9056;SDS011;4563;54.756;9.400;2023-02-18T12:02:27;0.30;;;0.20;;
9056;SDS011;4563;54.756;9.400;2023-02-18T12:05:00;0.60;;;0.30;;
9056;SDS011;4563;54.756;9.400;2023-02-18T12:07:30;0.73;;;0.20;;
9056;SDS011;4563;54.756;9.400;2023-02-18T12:10:10;0.53;;;0.17;;
9056;SDS011;4563;54.756;9.400;2023-02-18T12:12:43;0.90;;;0.30;;
9056;SDS011;4563;54.756;9.400;2023-02-18T12:15:13;1.17;;;0.40;;
9056;SDS011;4563;54.756;9.400;2023-02-18T12:20:44;0.57;;;0.50;;
9056;SDS011;4563;54.756;9.400;2023-02-18T12:23:20;0.87;;;0.27;;
9056;SDS011;4563;54.756;9.400;2023-02-18T12:25:58;1.33;;;0.23;;
9056;SDS011;4563;54.756;9.400;2023-02-18T12:28:37;0.40;;;0.30;;
9056;SDS011;4563;54.756;9.400;2023-02-18T12:31:20;0.53;;;0.23;;
9056;SDS011;4563;54.756;9.400;2023-02-18T12:33:58;0.73;;;0.10;;
9056;SDS011;4563;54.756;9.400;2023-02-18T12:36:42;0.57;;;0.20;;
9056;SDS011;4563;54.756;9.400;2023-02-18T12:39:23;0.20;;;0.20;;
9056;SDS011;4563;54.756;9.400;2023-02-18T12:42:05;0.10;;;0.10;;
9056;SDS011;4563;54.756;9.400;2023-02-18T12:44:47;0.43;;;0.40;;
9056;SDS011;4563;54.756;9.400;2023-02-18T12:47:26;1.03;;;0.30;;
9056;SDS011;4563;54.756;9.400;2023-02-18T12:53:06;0.77;;;0.10;;
9056;SDS011;4563;54.756;9.400;2023-02-18T12:55:51;0.10;;;0.10;;
9056;SDS011;4563;54.756;9.400;2023-02-18T12:58:29;0.40;;;0.13;;
9056;SDS011;4563;54.756;9.400;2023-02-18T13:01:08;0.30;;;0.17;;
9056;SDS011;4563;54.756;9.400;2023-02-18T13:03:51;0.00;;;0.00;;
9056;SDS011;4563;54.756;9.400;2023-02-18T13:09:31;0.10;;;0.07;;
9056;SDS011;4563;54.756;9.400;2023-02-18T13:12:05;1.80;;;0.60;;
9056;SDS011;4563;54.756;9.400;2023-02-18T13:14:45;0.37;;;0.10;;
9056;SDS011;4563;54.756;9.400;2023-02-18T13:17:22;0.20;;;0.03;;
9056;SDS011;4563;54.756;9.400;2023-02-18T13:19:56;0.30;;;0.10;;
9056;SDS011;4563;54.756;9.400;2023-02-18T13:22:27;0.40;;;0.20;;
9056;SDS011;4563;54.756;9.400;2023-02-18T13:24:56;0.60;;;0.20;;
9056;SDS011;4563;54.756;9.400;2023-02-18T13:27:24;0.37;;;0.13;;
9056;SDS011;4563;54.756;9.400;2023-02-18T13:29:59;0.10;;;0.10;;
9056;SDS011;4563;54.756;9.400;2023-02-18T13:32:41;0.20;;;0.10;;
9056;SDS011;4563;54.756;9.400;2023-02-18T13:35:18;1.33;;;0.20;;
9056;SDS011;4563;54.756;9.400;2023-02-18T13:37:55;0.40;;;0.10;;
9056;SDS011;4563;54.756;9.400;2023-02-18T13:40:42;0.10;;;0.10;;
9056;SDS011;4563;54.756;9.400;2023-02-18T13:43:17;0.53;;;0.10;;
9056;SDS011;4563;54.756;9.400;2023-02-18T13:48:32;0.77;;;0.10;;
9056;SDS011;4563;54.756;9.400;2023-02-18T13:51:04;0.30;;;0.10;;
9056;SDS011;4563;54.756;9.400;2023-02-18T13:53:34;0.70;;;0.10;;
9056;SDS011;4563;54.756;9.400;2023-02-18T13:56:04;0.30;;;0.10;;
9056;SDS011;4563;54.756;9.400;2023-02-18T13:58:35;1.60;;;0.20;;
9056;SDS011;4563;54.756;9.400;2023-02-18T14:01:13;0.47;;;0.10;;
9056;SDS011;4563;54.756;9.400;2023-02-18T14:03:53;0.20;;;0.13;;
9056;SDS011;4563;54.756;9.400;2023-02-18T14:06:25;0.77;;;0.07;;
9056;SDS011;4563;54.756;9.400;2023-02-18T14:09:15;0.10;;;0.10;;
9056;SDS011;4563;54.756;9.400;2023-02-18T14:12:15;0.80;;;0.20;;
9056;SDS011;4563;54.756;9.400;2023-02-18T14:14:55;1.20;;;0.70;;
9056;SDS011;4563;54.756;9.400;2023-02-18T14:17:33;1.10;;;0.83;;
9056;SDS011;4563;54.756;9.400;2023-02-18T14:23:37;10.07;;;6.77;;
9056;SDS011;4563;54.756;9.400;2023-02-18T14:26:27;4.73;;;4.33;;
9056;SDS011;4563;54.756;9.400;2023-02-18T14:28:59;2.93;;;0.80;;
9056;SDS011;4563;54.756;9.400;2023-02-18T14:31:35;0.80;;;0.80;;
9056;SDS011;4563;54.756;9.400;2023-02-18T14:34:26;1.03;;;0.30;;
9056;SDS011;4563;54.756;9.400;2023-02-18T14:37:15;0.27;;;0.20;;
9056;SDS011;4563;54.756;9.400;2023-02-18T14:40:03;0.30;;;0.20;;
9056;SDS011;4563;54.756;9.400;2023-02-18T14:42:45;2.30;;;0.20;;
9056;SDS011;4563;54.756;9.400;2023-02-18T14:45:24;1.57;;;0.30;;
9056;SDS011;4563;54.756;9.400;2023-02-18T14:48:18;2.10;;;0.30;;
9056;SDS011;4563;54.756;9.400;2023-02-18T14:50:57;1.40;;;0.87;;
9056;SDS011;4563;54.756;9.400;2023-02-18T14:53:26;0.27;;;0.10;;
9056;SDS011;4563;54.756;9.400;2023-02-18T14:55:56;1.27;;;0.10;;
9056;SDS011;4563;54.756;9.400;2023-02-18T14:58:28;0.30;;;0.30;;
9056;SDS011;4563;54.756;9.400;2023-02-18T15:00:57;0.63;;;0.20;;
9056;SDS011;4563;54.756;9.400;2023-02-18T15:03:41;1.87;;;0.40;;
9056;SDS011;4563;54.756;9.400;2023-02-18T15:06:20;0.20;;;0.20;;
9056;SDS011;4563;54.756;9.400;2023-02-18T15:08:54;0.10;;;0.10;;
9056;SDS011;4563;54.756;9.400;2023-02-18T15:11:24;0.50;;;0.27;;
9056;SDS011;4563;54.756;9.400;2023-02-18T15:13:59;0.43;;;0.20;;
9056;SDS011;4563;54.756;9.400;2023-02-18T15:16:28;2.20;;;0.40;;
9056;SDS011;4563;54.756;9.400;2023-02-18T15:18:58;0.30;;;0.20;;
9056;SDS011;4563;54.756;9.400;2023-02-18T15:21:28;1.20;;;0.23;;
9056;SDS011;4563;54.756;9.400;2023-02-18T15:23:59;0.47;;;0.40;;
9056;SDS011;4563;54.756;9.400;2023-02-18T15:26:31;0.73;;;0.40;;
9056;SDS011;4563;54.756;9.400;2023-02-18T15:29:00;1.07;;;0.40;;
9056;SDS011;4563;54.756;9.400;2023-02-18T15:31:30;0.70;;;0.43;;
9056;SDS011;4563;54.756;9.400;2023-02-18T15:34:01;3.07;;;0.30;;
9056;SDS011;4563;54.756;9.400;2023-02-18T15:36:34;7.13;;;0.40;;
9056;SDS011;4563;54.756;9.400;2023-02-18T15:39:02;1.10;;;0.30;;
9056;SDS011;4563;54.756;9.400;2023-02-18T15:41:29;1.20;;;0.57;;
9056;SDS011;4563;54.756;9.400;2023-02-18T15:43:59;2.20;;;0.40;;
9056;SDS011;4563;54.756;9.400;2023-02-18T15:46:29;5.37;;;0.67;;
9056;SDS011;4563;54.756;9.400;2023-02-18T15:48:57;4.27;;;0.70;;
9056;SDS011;4563;54.756;9.400;2023-02-18T15:51:26;5.23;;;0.73;;
9056;SDS011;4563;54.756;9.400;2023-02-18T15:53:55;5.17;;;0.70;;
9056;SDS011;4563;54.756;9.400;2023-02-18T15:56:28;3.47;;;0.50;;